sensor_id;sensor_type;location;lat;lon;timestamp;pressure;altitude;pressure_sealevel;temperature;humidity
63339;BME280;70568;51.378;-1.342;2023-12-07T00:00:42;99951.67;;;3.96;31.63
63339;BME280;70568;51.378;-1.342;2023-12-07T00:03:10;99949.13;;;2.88;32.54
63339;BME280;70568;51.378;-1.342;2023-12-07T00:05:36;99939.29;;;3.85;31.27
63339;BME280;70568;51.378;-1.342;2023-12-07T00:08:03;99942.25;;;3.09;32.29
63339;BME280;70568;51.378;-1.342;2023-12-07T00:10:30;99937.89;;;3.03;32.96
63339;BME280;70568;51.378;-1.342;2023-12-07T00:12:57;99933.53;;;3.83;32.41
63339;BME280;70568;51.378;-1.342;2023-12-07T00:15:24;99932.00;;;4.37;31.37
63339;BME280;70568;51.378;-1.342;2023-12-07T00:17:52;99930.18;;;3.53;32.29
63339;BME280;70568;51.378;-1.342;2023-12-07T00:20:18;99924.51;;;3.71;32.47
63339;BME280;70568;51.378;-1.342;2023-12-07T00:22:46;99917.19;;;2.36;33.20
63339;BME280;70568;51.378;-1.342;2023-12-07T00:25:12;99902.89;;;1.55;33.94
63339;BME280;70568;51.378;-1.342;2023-12-07T00:27:39;99895.94;;;3.90;33.69
63339;BME280;70568;51.378;-1.342;2023-12-07T00:30:07;99891.89;;;3.12;33.52
63339;BME280;70568;51.378;-1.342;2023-12-07T00:32:33;99890.91;;;3.21;33.10
63339;BME280;70568;51.378;-1.342;2023-12-07T00:35:00;99896.92;;;2.90;32.86
63339;BME280;70568;51.378;-1.342;2023-12-07T00:37:27;99906.97;;;2.90;33.98
63339;BME280;70568;51.378;-1.342;2023-12-07T00:39:54;99904.89;;;2.85;34.23
63339;BME280;70568;51.378;-1.342;2023-12-07T00:42:21;99896.74;;;3.88;34.06
63339;BME280;70568;51.378;-1.342;2023-12-07T00:44:47;99893.34;;;2.34;34.47
63339;BME280;70568;51.378;-1.342;2023-12-07T00:47:14;99889.11;;;3.21;34.99
63339;BME280;70568;51.378;-1.342;2023-12-07T00:49:40;99893.02;;;0.90;36.90
63339;BME280;70568;51.378;-1.342;2023-12-07T00:52:07;99898.46;;;1.14;38.06
63339;BME280;70568;51.378;-1.342;2023-12-07T00:54:34;99895.98;;;1.02;39.03
63339;BME280;70568;51.378;-1.342;2023-12-07T00:57:02;99893.05;;;1.97;37.70
63339;BME280;70568;51.378;-1.342;2023-12-07T00:59:28;99885.21;;;2.85;37.09
63339;BME280;70568;51.378;-1.342;2023-12-07T01:01:55;99879.67;;;3.74;36.11
63339;BME280;70568;51.378;-1.342;2023-12-07T01:04:22;99878.52;;;4.00;37.03
63339;BME280;70568;51.378;-1.342;2023-12-07T01:06:48;99873.31;;;4.00;36.89
63339;BME280;70568;51.378;-1.342;2023-12-07T01:09:16;99872.05;;;2.01;38.99
63339;BME280;70568;51.378;-1.342;2023-12-07T01:11:43;99865.95;;;2.37;38.16
63339;BME280;70568;51.378;-1.342;2023-12-07T01:14:11;99854.34;;;1.82;38.22
63339;BME280;70568;51.378;-1.342;2023-12-07T01:16:38;99848.89;;;2.14;37.99
63339;BME280;70568;51.378;-1.342;2023-12-07T01:19:05;99847.76;;;3.15;37.36
63339;BME280;70568;51.378;-1.342;2023-12-07T01:21:32;99843.35;;;3.01;37.38
63339;BME280;70568;51.378;-1.342;2023-12-07T01:23:58;99837.69;;;1.85;37.15
63339;BME280;70568;51.378;-1.342;2023-12-07T01:26:25;99833.41;;;4.31;36.01
63339;BME280;70568;51.378;-1.342;2023-12-07T01:28:53;99829.50;;;3.08;35.41
63339;BME280;70568;51.378;-1.342;2023-12-07T01:31:20;99824.21;;;3.48;35.14
63339;BME280;70568;51.378;-1.342;2023-12-07T01:33:47;99823.59;;;2.59;36.42
63339;BME280;70568;51.378;-1.342;2023-12-07T01:36:14;99824.61;;;3.80;35.13
63339;BME280;70568;51.378;-1.342;2023-12-07T01:38:42;99822.41;;;3.38;35.21
63339;BME280;70568;51.378;-1.342;2023-12-07T01:41:09;99816.73;;;2.83;36.15
63339;BME280;70568;51.378;-1.342;2023-12-07T01:43:35;99810.70;;;2.47;37.97
63339;BME280;70568;51.378;-1.342;2023-12-07T01:46:03;99805.60;;;2.10;36.76
63339;BME280;70568;51.378;-1.342;2023-12-07T01:48:30;99800.69;;;1.11;39.00
63339;BME280;70568;51.378;-1.342;2023-12-07T01:50:58;99789.35;;;2.38;38.50
63339;BME280;70568;51.378;-1.342;2023-12-07T01:53:26;99787.16;;;3.25;37.37
63339;BME280;70568;51.378;-1.342;2023-12-07T01:55:54;99782.81;;;0.90;39.25
63339;BME280;70568;51.378;-1.342;2023-12-07T01:58:21;99784.80;;;2.47;37.82
63339;BME280;70568;51.378;-1.342;2023-12-07T02:00:48;99779.62;;;1.70;38.19
63339;BME280;70568;51.378;-1.342;2023-12-07T02:03:16;99783.47;;;1.36;38.91
63339;BME280;70568;51.378;-1.342;2023-12-07T02:05:47;99777.22;;;3.97;36.94
63339;BME280;70568;51.378;-1.342;2023-12-07T02:08:14;99780.83;;;2.07;38.12
63339;BME280;70568;51.378;-1.342;2023-12-07T02:10:41;99783.42;;;2.95;37.94
63339;BME280;70568;51.378;-1.342;2023-12-07T02:13:08;99785.65;;;1.79;39.77
63339;BME280;70568;51.378;-1.342;2023-12-07T02:15:35;99774.78;;;4.13;36.98
63339;BME280;70568;51.378;-1.342;2023-12-07T02:18:10;99781.41;;;2.20;38.71
63339;BME280;70568;51.378;-1.342;2023-12-07T02:20:39;99780.03;;;2.75;37.65
63339;BME280;70568;51.378;-1.342;2023-12-07T02:23:12;99777.83;;;3.32;37.85
63339;BME280;70568;51.378;-1.342;2023-12-07T02:25:43;99779.90;;;3.10;38.32
63339;BME280;70568;51.378;-1.342;2023-12-07T02:28:10;99771.30;;;2.74;38.70
63339;BME280;70568;51.378;-1.342;2023-12-07T02:30:37;99774.14;;;4.03;37.47
63339;BME280;70568;51.378;-1.342;2023-12-07T02:33:04;99768.91;;;4.53;37.56
63339;BME280;70568;51.378;-1.342;2023-12-07T02:35:32;99766.18;;;2.47;38.54
63339;BME280;70568;51.378;-1.342;2023-12-07T02:38:00;99760.45;;;2.10;38.92
63339;BME280;70568;51.378;-1.342;2023-12-07T02:40:28;99760.49;;;3.64;38.54
63339;BME280;70568;51.378;-1.342;2023-12-07T02:42:56;99755.16;;;2.33;38.98
63339;BME280;70568;51.378;-1.342;2023-12-07T02:45:23;99751.02;;;2.74;37.48
63339;BME280;70568;51.378;-1.342;2023-12-07T02:47:50;99751.98;;;3.45;37.74
63339;BME280;70568;51.378;-1.342;2023-12-07T02:50:16;99754.26;;;3.58;37.63
63339;BME280;70568;51.378;-1.342;2023-12-07T02:52:44;99752.23;;;5.10;37.82
63339;BME280;70568;51.378;-1.342;2023-12-07T02:55:11;99751.66;;;3.65;37.34
63339;BME280;70568;51.378;-1.342;2023-12-07T02:57:38;99745.80;;;2.85;38.36
63339;BME280;70568;51.378;-1.342;2023-12-07T03:00:06;99744.52;;;2.38;38.67
63339;BME280;70568;51.378;-1.342;2023-12-07T03:02:33;99735.25;;;4.16;38.34
63339;BME280;70568;51.378;-1.342;2023-12-07T03:05:00;99742.35;;;-0.86;43.54
63339;BME280;70568;51.378;-1.342;2023-12-07T03:07:28;99732.49;;;3.30;40.42
63339;BME280;70568;51.378;-1.342;2023-12-07T03:09:55;99733.82;;;1.71;39.91
63339;BME280;70568;51.378;-1.342;2023-12-07T03:12:21;99733.91;;;2.75;39.09
63339;BME280;70568;51.378;-1.342;2023-12-07T03:14:48;99722.33;;;3.44;38.00
63339;BME280;70568;51.378;-1.342;2023-12-07T03:17:14;99717.54;;;1.81;40.36
63339;BME280;70568;51.378;-1.342;2023-12-07T03:19:41;99716.55;;;3.47;38.64
63339;BME280;70568;51.378;-1.342;2023-12-07T03:22:08;99722.41;;;1.61;40.14
63339;BME280;70568;51.378;-1.342;2023-12-07T03:24:35;99717.72;;;2.96;39.12
63339;BME280;70568;51.378;-1.342;2023-12-07T03:27:03;99712.35;;;3.90;39.30
63339;BME280;70568;51.378;-1.342;2023-12-07T03:29:31;99703.87;;;3.97;37.57
63339;BME280;70568;51.378;-1.342;2023-12-07T03:31:58;99700.45;;;1.94;39.31
63339;BME280;70568;51.378;-1.342;2023-12-07T03:34:25;99697.45;;;0.13;40.63
63339;BME280;70568;51.378;-1.342;2023-12-07T03:36:52;99687.19;;;2.67;38.94
63339;BME280;70568;51.378;-1.342;2023-12-07T03:39:19;99674.55;;;2.86;38.92
63339;BME280;70568;51.378;-1.342;2023-12-07T03:41:46;99676.48;;;2.06;41.61
63339;BME280;70568;51.378;-1.342;2023-12-07T03:44:13;99668.91;;;0.95;41.49
63339;BME280;70568;51.378;-1.342;2023-12-07T03:46:40;99662.27;;;0.86;40.83
63339;BME280;70568;51.378;-1.342;2023-12-07T03:49:06;99661.51;;;2.40;40.15
63339;BME280;70568;51.378;-1.342;2023-12-07T03:51:33;99668.71;;;3.18;39.28
63339;BME280;70568;51.378;-1.342;2023-12-07T03:54:00;99669.97;;;1.37;40.59
63339;BME280;70568;51.378;-1.342;2023-12-07T03:56:29;99669.78;;;3.00;38.94
63339;BME280;70568;51.378;-1.342;2023-12-07T03:58:57;99676.71;;;1.67;41.75
63339;BME280;70568;51.378;-1.342;2023-12-07T04:01:24;99673.73;;;0.78;44.63
63339;BME280;70568;51.378;-1.342;2023-12-07T04:03:53;99660.84;;;2.60;42.78
63339;BME280;70568;51.378;-1.342;2023-12-07T04:06:20;99650.30;;;2.27;41.96
63339;BME280;70568;51.378;-1.342;2023-12-07T04:08:47;99645.15;;;4.00;41.35
63339;BME280;70568;51.378;-1.342;2023-12-07T04:11:14;99643.42;;;2.88;41.00
63339;BME280;70568;51.378;-1.342;2023-12-07T04:13:41;99644.03;;;1.75;40.48
63339;BME280;70568;51.378;-1.342;2023-12-07T04:16:09;99637.23;;;2.17;41.68
63339;BME280;70568;51.378;-1.342;2023-12-07T04:18:36;99628.08;;;2.54;40.66
63339;BME280;70568;51.378;-1.342;2023-12-07T04:21:03;99622.54;;;1.79;40.62
63339;BME280;70568;51.378;-1.342;2023-12-07T04:23:30;99618.77;;;1.63;41.70
63339;BME280;70568;51.378;-1.342;2023-12-07T04:25:57;99618.47;;;2.35;40.63
63339;BME280;70568;51.378;-1.342;2023-12-07T04:28:24;99614.03;;;2.22;40.24
63339;BME280;70568;51.378;-1.342;2023-12-07T04:30:51;99613.76;;;2.98;40.39
63339;BME280;70568;51.378;-1.342;2023-12-07T04:33:18;99609.95;;;4.08;40.36
63339;BME280;70568;51.378;-1.342;2023-12-07T04:35:45;99607.20;;;3.48;41.90
63339;BME280;70568;51.378;-1.342;2023-12-07T04:38:12;99603.67;;;0.44;42.82
63339;BME280;70568;51.378;-1.342;2023-12-07T04:40:39;99603.45;;;3.60;40.63
63339;BME280;70568;51.378;-1.342;2023-12-07T04:43:06;99600.74;;;2.19;41.79
63339;BME280;70568;51.378;-1.342;2023-12-07T04:45:33;99585.36;;;2.39;41.09
63339;BME280;70568;51.378;-1.342;2023-12-07T04:48:00;99579.57;;;1.85;41.44
63339;BME280;70568;51.378;-1.342;2023-12-07T04:50:27;99576.92;;;2.17;42.32
63339;BME280;70568;51.378;-1.342;2023-12-07T04:52:55;99568.34;;;1.99;43.14
63339;BME280;70568;51.378;-1.342;2023-12-07T04:55:21;99564.50;;;1.26;44.00
63339;BME280;70568;51.378;-1.342;2023-12-07T04:57:48;99562.00;;;1.69;41.92
63339;BME280;70568;51.378;-1.342;2023-12-07T05:00:15;99554.76;;;1.94;42.33
63339;BME280;70568;51.378;-1.342;2023-12-07T05:02:42;99551.82;;;2.27;41.77
63339;BME280;70568;51.378;-1.342;2023-12-07T05:05:09;99552.04;;;1.93;42.91
63339;BME280;70568;51.378;-1.342;2023-12-07T05:07:35;99547.76;;;2.53;43.43
63339;BME280;70568;51.378;-1.342;2023-12-07T05:10:02;99530.86;;;2.23;44.10
63339;BME280;70568;51.378;-1.342;2023-12-07T05:12:29;99517.99;;;0.82;45.06
63339;BME280;70568;51.378;-1.342;2023-12-07T05:14:56;99525.54;;;1.49;43.79
63339;BME280;70568;51.378;-1.342;2023-12-07T05:17:23;99521.43;;;2.64;43.60
63339;BME280;70568;51.378;-1.342;2023-12-07T05:19:50;99521.59;;;1.39;45.20
63339;BME280;70568;51.378;-1.342;2023-12-07T05:22:17;99524.00;;;3.43;42.95
63339;BME280;70568;51.378;-1.342;2023-12-07T05:24:43;99518.01;;;1.95;41.96
63339;BME280;70568;51.378;-1.342;2023-12-07T05:27:11;99526.91;;;2.41;42.11
63339;BME280;70568;51.378;-1.342;2023-12-07T05:29:37;99537.08;;;1.47;44.26
63339;BME280;70568;51.378;-1.342;2023-12-07T05:32:04;99524.56;;;2.14;43.60
63339;BME280;70568;51.378;-1.342;2023-12-07T05:34:31;99527.27;;;2.35;43.77
63339;BME280;70568;51.378;-1.342;2023-12-07T05:36:58;99532.83;;;0.31;46.56
63339;BME280;70568;51.378;-1.342;2023-12-07T05:39:24;99523.95;;;0.46;47.44
63339;BME280;70568;51.378;-1.342;2023-12-07T05:41:51;99523.18;;;0.46;46.70
63339;BME280;70568;51.378;-1.342;2023-12-07T05:44:18;99513.57;;;-0.57;49.39
63339;BME280;70568;51.378;-1.342;2023-12-07T05:46:45;99517.48;;;-0.50;48.64
63339;BME280;70568;51.378;-1.342;2023-12-07T05:49:11;99524.65;;;1.93;45.12
63339;BME280;70568;51.378;-1.342;2023-12-07T05:51:38;99527.91;;;-1.05;50.56
63339;BME280;70568;51.378;-1.342;2023-12-07T05:54:05;99522.81;;;0.07;49.19
63339;BME280;70568;51.378;-1.342;2023-12-07T05:56:32;99518.21;;;2.46;48.60
63339;BME280;70568;51.378;-1.342;2023-12-07T05:58:59;99508.91;;;1.24;48.61
63339;BME280;70568;51.378;-1.342;2023-12-07T06:01:26;99506.16;;;-0.71;49.41
63339;BME280;70568;51.378;-1.342;2023-12-07T06:03:54;99495.50;;;-0.45;50.62
63339;BME280;70568;51.378;-1.342;2023-12-07T06:06:20;99484.45;;;-1.80;53.59
63339;BME280;70568;51.378;-1.342;2023-12-07T06:08:48;99485.29;;;0.61;50.21
63339;BME280;70568;51.378;-1.342;2023-12-07T06:11:14;99481.04;;;-1.68;52.17
63339;BME280;70568;51.378;-1.342;2023-12-07T06:13:41;99475.65;;;1.52;48.25
63339;BME280;70568;51.378;-1.342;2023-12-07T06:16:11;99485.00;;;1.09;48.13
63339;BME280;70568;51.378;-1.342;2023-12-07T06:18:38;99479.44;;;1.36;47.22
63339;BME280;70568;51.378;-1.342;2023-12-07T06:21:05;99482.46;;;1.05;47.40
63339;BME280;70568;51.378;-1.342;2023-12-07T06:23:32;99476.63;;;1.03;47.46
63339;BME280;70568;51.378;-1.342;2023-12-07T06:25:59;99486.06;;;0.64;47.17
63339;BME280;70568;51.378;-1.342;2023-12-07T06:28:25;99470.04;;;1.07;47.35
63339;BME280;70568;51.378;-1.342;2023-12-07T06:30:52;99469.04;;;0.86;47.57
63339;BME280;70568;51.378;-1.342;2023-12-07T06:33:19;99466.71;;;0.87;47.73
63339;BME280;70568;51.378;-1.342;2023-12-07T06:35:46;99468.30;;;1.87;46.60
63339;BME280;70568;51.378;-1.342;2023-12-07T06:38:12;99475.90;;;0.06;51.56
63339;BME280;70568;51.378;-1.342;2023-12-07T06:40:39;99476.80;;;0.97;49.17
63339;BME280;70568;51.378;-1.342;2023-12-07T06:43:06;99469.04;;;0.11;49.49
63339;BME280;70568;51.378;-1.342;2023-12-07T06:45:33;99470.13;;;2.39;47.97
63339;BME280;70568;51.378;-1.342;2023-12-07T06:48:00;99468.97;;;-0.14;49.44
63339;BME280;70568;51.378;-1.342;2023-12-07T06:50:27;99459.45;;;-0.54;50.65
63339;BME280;70568;51.378;-1.342;2023-12-07T06:52:55;99464.07;;;-1.54;52.75
63339;BME280;70568;51.378;-1.342;2023-12-07T06:55:22;99454.71;;;-1.40;52.08
63339;BME280;70568;51.378;-1.342;2023-12-07T06:57:49;99460.35;;;-0.15;50.76
63339;BME280;70568;51.378;-1.342;2023-12-07T07:00:16;99463.43;;;-0.67;50.36
63339;BME280;70568;51.378;-1.342;2023-12-07T07:02:43;99462.90;;;-1.05;51.68
63339;BME280;70568;51.378;-1.342;2023-12-07T07:05:10;99461.75;;;1.30;48.92
63339;BME280;70568;51.378;-1.342;2023-12-07T07:07:36;99456.04;;;-0.17;50.23
63339;BME280;70568;51.378;-1.342;2023-12-07T07:10:04;99448.37;;;-0.23;48.75
63339;BME280;70568;51.378;-1.342;2023-12-07T07:12:30;99452.16;;;1.91;46.76
63339;BME280;70568;51.378;-1.342;2023-12-07T07:14:57;99445.82;;;0.53;49.13
63339;BME280;70568;51.378;-1.342;2023-12-07T07:17:24;99445.15;;;1.22;46.89
63339;BME280;70568;51.378;-1.342;2023-12-07T07:19:50;99442.44;;;2.66;45.62
63339;BME280;70568;51.378;-1.342;2023-12-07T07:22:17;99429.33;;;0.99;47.03
63339;BME280;70568;51.378;-1.342;2023-12-07T07:24:44;99434.69;;;0.64;47.10
63339;BME280;70568;51.378;-1.342;2023-12-07T07:27:10;99432.11;;;-0.22;46.78
63339;BME280;70568;51.378;-1.342;2023-12-07T07:29:37;99431.91;;;0.15;47.99
63339;BME280;70568;51.378;-1.342;2023-12-07T07:32:04;99434.67;;;-1.21;48.67
63339;BME280;70568;51.378;-1.342;2023-12-07T07:34:31;99428.87;;;1.55;46.53
63339;BME280;70568;51.378;-1.342;2023-12-07T07:36:57;99429.68;;;1.71;47.86
63339;BME280;70568;51.378;-1.342;2023-12-07T07:39:24;99435.13;;;1.76;45.93
63339;BME280;70568;51.378;-1.342;2023-12-07T07:41:50;99435.89;;;1.62;46.68
63339;BME280;70568;51.378;-1.342;2023-12-07T07:44:17;99435.48;;;-0.85;50.06
63339;BME280;70568;51.378;-1.342;2023-12-07T07:46:43;99430.60;;;0.67;48.93
63339;BME280;70568;51.378;-1.342;2023-12-07T07:49:11;99422.93;;;0.60;50.45
63339;BME280;70568;51.378;-1.342;2023-12-07T07:51:39;99419.04;;;2.03;46.63
63339;BME280;70568;51.378;-1.342;2023-12-07T07:54:06;99421.90;;;1.81;45.48
63339;BME280;70568;51.378;-1.342;2023-12-07T07:56:32;99418.00;;;-1.24;49.81
63339;BME280;70568;51.378;-1.342;2023-12-07T07:58:59;99422.54;;;1.06;47.09
63339;BME280;70568;51.378;-1.342;2023-12-07T08:01:26;99415.32;;;-0.83;48.81
63339;BME280;70568;51.378;-1.342;2023-12-07T08:03:54;99417.73;;;1.90;45.38
63339;BME280;70568;51.378;-1.342;2023-12-07T08:06:21;99419.10;;;1.93;44.54
63339;BME280;70568;51.378;-1.342;2023-12-07T08:08:47;99418.85;;;3.40;45.23
63339;BME280;70568;51.378;-1.342;2023-12-07T08:11:14;99412.76;;;1.49;46.82
63339;BME280;70568;51.378;-1.342;2023-12-07T08:13:41;99407.18;;;0.67;49.40
63339;BME280;70568;51.378;-1.342;2023-12-07T08:16:08;99407.32;;;-0.50;50.19
63339;BME280;70568;51.378;-1.342;2023-12-07T08:18:34;99393.30;;;0.65;48.16
63339;BME280;70568;51.378;-1.342;2023-12-07T08:21:01;99398.28;;;-1.43;50.97
63339;BME280;70568;51.378;-1.342;2023-12-07T08:23:27;99396.65;;;0.77;48.11
63339;BME280;70568;51.378;-1.342;2023-12-07T08:25:55;99393.18;;;1.42;47.57
63339;BME280;70568;51.378;-1.342;2023-12-07T08:28:21;99385.50;;;1.35;47.88
63339;BME280;70568;51.378;-1.342;2023-12-07T08:30:47;99391.84;;;0.73;47.83
63339;BME280;70568;51.378;-1.342;2023-12-07T08:33:15;99389.74;;;0.81;47.69
63339;BME280;70568;51.378;-1.342;2023-12-07T08:35:41;99380.46;;;-0.62;49.57
63339;BME280;70568;51.378;-1.342;2023-12-07T08:38:08;99376.71;;;0.16;47.94
63339;BME280;70568;51.378;-1.342;2023-12-07T08:40:34;99372.53;;;1.07;47.93
63339;BME280;70568;51.378;-1.342;2023-12-07T08:43:01;99371.21;;;-1.89;50.64
63339;BME280;70568;51.378;-1.342;2023-12-07T08:45:28;99358.92;;;-1.00;49.45
63339;BME280;70568;51.378;-1.342;2023-12-07T08:47:55;99355.33;;;0.42;47.24
63339;BME280;70568;51.378;-1.342;2023-12-07T08:50:22;99339.90;;;3.24;43.65
63339;BME280;70568;51.378;-1.342;2023-12-07T08:52:49;99343.92;;;1.90;46.62
63339;BME280;70568;51.378;-1.342;2023-12-07T08:55:16;99340.16;;;0.82;47.36
63339;BME280;70568;51.378;-1.342;2023-12-07T08:57:43;99345.71;;;1.43;45.96
63339;BME280;70568;51.378;-1.342;2023-12-07T09:00:10;99339.61;;;2.26;44.18
63339;BME280;70568;51.378;-1.342;2023-12-07T09:02:37;99342.07;;;2.16;44.22
63339;BME280;70568;51.378;-1.342;2023-12-07T09:05:05;99330.97;;;1.48;44.24
63339;BME280;70568;51.378;-1.342;2023-12-07T09:07:32;99328.81;;;1.41;44.65
63339;BME280;70568;51.378;-1.342;2023-12-07T09:09:58;99326.10;;;-2.20;49.74
63339;BME280;70568;51.378;-1.342;2023-12-07T09:12:25;99309.10;;;2.59;44.08
63339;BME280;70568;51.378;-1.342;2023-12-07T09:14:52;99309.70;;;2.00;46.03
63339;BME280;70568;51.378;-1.342;2023-12-07T09:17:19;99298.45;;;0.54;45.81
63339;BME280;70568;51.378;-1.342;2023-12-07T09:19:46;99290.56;;;0.58;47.23
63339;BME280;70568;51.378;-1.342;2023-12-07T09:22:13;99292.07;;;1.44;46.10
63339;BME280;70568;51.378;-1.342;2023-12-07T09:24:40;99292.56;;;0.03;47.99
63339;BME280;70568;51.378;-1.342;2023-12-07T09:27:06;99291.53;;;0.59;46.54
63339;BME280;70568;51.378;-1.342;2023-12-07T09:29:33;99293.83;;;-1.53;48.91
63339;BME280;70568;51.378;-1.342;2023-12-07T09:32:01;99293.57;;;-0.01;46.50
63339;BME280;70568;51.378;-1.342;2023-12-07T09:34:27;99290.10;;;2.90;44.13
63339;BME280;70568;51.378;-1.342;2023-12-07T09:37:05;99290.33;;;1.27;45.93
63339;BME280;70568;51.378;-1.342;2023-12-07T09:39:32;99303.29;;;-0.22;47.24
63339;BME280;70568;51.378;-1.342;2023-12-07T09:41:59;99293.05;;;0.64;46.20
63339;BME280;70568;51.378;-1.342;2023-12-07T09:44:26;99300.31;;;-1.06;49.36
63339;BME280;70568;51.378;-1.342;2023-12-07T09:46:54;99287.36;;;1.01;46.04
63339;BME280;70568;51.378;-1.342;2023-12-07T09:49:21;99293.55;;;2.29;42.44
63339;BME280;70568;51.378;-1.342;2023-12-07T09:51:49;99277.08;;;2.13;42.47
63339;BME280;70568;51.378;-1.342;2023-12-07T09:54:19;99276.16;;;0.32;45.91
63339;BME280;70568;51.378;-1.342;2023-12-07T09:56:47;99273.25;;;-2.12;50.14
63339;BME280;70568;51.378;-1.342;2023-12-07T09:59:13;99270.83;;;0.48;45.98
63339;BME280;70568;51.378;-1.342;2023-12-07T10:01:40;99276.94;;;0.40;44.53
63339;BME280;70568;51.378;-1.342;2023-12-07T10:04:22;99258.61;;;1.11;45.97
63339;BME280;70568;51.378;-1.342;2023-12-07T10:06:49;99255.56;;;-0.45;47.12
63339;BME280;70568;51.378;-1.342;2023-12-07T10:09:17;99243.63;;;0.43;46.00
63339;BME280;70568;51.378;-1.342;2023-12-07T10:11:43;99243.08;;;-0.03;46.59
63339;BME280;70568;51.378;-1.342;2023-12-07T10:14:10;99238.40;;;-1.22;46.60
63339;BME280;70568;51.378;-1.342;2023-12-07T10:16:37;99231.64;;;-0.13;46.46
63339;BME280;70568;51.378;-1.342;2023-12-07T10:19:13;99217.31;;;2.32;44.37
63339;BME280;70568;51.378;-1.342;2023-12-07T10:21:41;99219.20;;;0.33;46.74
63339;BME280;70568;51.378;-1.342;2023-12-07T10:24:09;99225.19;;;-2.00;51.19
63339;BME280;70568;51.378;-1.342;2023-12-07T10:26:37;99222.33;;;0.70;45.82
63339;BME280;70568;51.378;-1.342;2023-12-07T10:29:05;99232.00;;;0.42;46.05
63339;BME280;70568;51.378;-1.342;2023-12-07T10:31:31;99236.83;;;0.10;46.85
63339;BME280;70568;51.378;-1.342;2023-12-07T10:33:58;99241.04;;;2.37;43.09
63339;BME280;70568;51.378;-1.342;2023-12-07T10:36:25;99241.29;;;-0.04;45.59
63339;BME280;70568;51.378;-1.342;2023-12-07T10:38:54;99245.57;;;-0.06;44.24
63339;BME280;70568;51.378;-1.342;2023-12-07T10:41:23;99245.40;;;1.44;45.00
63339;BME280;70568;51.378;-1.342;2023-12-07T10:43:53;99216.37;;;0.87;44.92
63339;BME280;70568;51.378;-1.342;2023-12-07T10:46:21;99220.27;;;1.59;44.66
63339;BME280;70568;51.378;-1.342;2023-12-07T10:48:49;99214.84;;;-2.07;49.58
63339;BME280;70568;51.378;-1.342;2023-12-07T10:51:26;99216.84;;;-0.50;46.01
63339;BME280;70568;51.378;-1.342;2023-12-07T10:53:57;99211.41;;;1.72;43.94
63339;BME280;70568;51.378;-1.342;2023-12-07T10:56:28;99205.11;;;1.44;44.42
63339;BME280;70568;51.378;-1.342;2023-12-07T10:58:58;99207.43;;;1.11;44.98
63339;BME280;70568;51.378;-1.342;2023-12-07T11:01:25;99197.14;;;1.68;45.00
63339;BME280;70568;51.378;-1.342;2023-12-07T11:03:55;99200.89;;;1.68;43.68
63339;BME280;70568;51.378;-1.342;2023-12-07T11:06:23;99196.14;;;1.38;43.54
63339;BME280;70568;51.378;-1.342;2023-12-07T11:08:54;99185.47;;;2.02;42.60
63339;BME280;70568;51.378;-1.342;2023-12-07T11:11:28;99195.81;;;3.39;40.86
63339;BME280;70568;51.378;-1.342;2023-12-07T11:13:58;99176.04;;;3.54;39.65
63339;BME280;70568;51.378;-1.342;2023-12-07T11:16:30;99173.44;;;1.28;42.68
63339;BME280;70568;51.378;-1.342;2023-12-07T11:18:58;99164.94;;;1.25;43.88
63339;BME280;70568;51.378;-1.342;2023-12-07T11:21:24;99163.24;;;0.79;45.12
63339;BME280;70568;51.378;-1.342;2023-12-07T11:23:52;99154.63;;;2.12;43.96
63339;BME280;70568;51.378;-1.342;2023-12-07T11:26:19;99158.56;;;0.99;44.68
63339;BME280;70568;51.378;-1.342;2023-12-07T11:28:46;99151.42;;;2.11;43.90
63339;BME280;70568;51.378;-1.342;2023-12-07T11:31:13;99148.71;;;-0.01;46.44
63339;BME280;70568;51.378;-1.342;2023-12-07T11:33:40;99136.75;;;1.92;45.68
63339;BME280;70568;51.378;-1.342;2023-12-07T11:36:09;99129.03;;;0.59;45.22
63339;BME280;70568;51.378;-1.342;2023-12-07T11:38:37;99124.66;;;1.12;43.47
63339;BME280;70568;51.378;-1.342;2023-12-07T11:41:04;99108.34;;;2.20;41.66
63339;BME280;70568;51.378;-1.342;2023-12-07T11:43:46;99109.29;;;2.38;42.36
63339;BME280;70568;51.378;-1.342;2023-12-07T11:46:13;99099.42;;;2.33;41.02
63339;BME280;70568;51.378;-1.342;2023-12-07T11:48:46;99092.61;;;1.98;41.61
63339;BME280;70568;51.378;-1.342;2023-12-07T11:51:15;99084.08;;;1.48;43.29
63339;BME280;70568;51.378;-1.342;2023-12-07T11:53:42;99083.93;;;2.83;41.51
63339;BME280;70568;51.378;-1.342;2023-12-07T11:56:10;99080.48;;;2.93;41.57
63339;BME280;70568;51.378;-1.342;2023-12-07T11:58:38;99078.67;;;1.90;43.34
63339;BME280;70568;51.378;-1.342;2023-12-07T12:01:05;99067.40;;;3.17;42.12
63339;BME280;70568;51.378;-1.342;2023-12-07T12:03:32;99051.88;;;1.15;42.44
63339;BME280;70568;51.378;-1.342;2023-12-07T12:05:59;99068.23;;;2.63;41.72
63339;BME280;70568;51.378;-1.342;2023-12-07T12:08:26;99055.51;;;1.66;43.72
63339;BME280;70568;51.378;-1.342;2023-12-07T12:10:54;99066.67;;;0.46;44.15
63339;BME280;70568;51.378;-1.342;2023-12-07T12:13:26;99062.56;;;-0.19;46.38
63339;BME280;70568;51.378;-1.342;2023-12-07T12:15:54;99049.55;;;2.68;42.52
63339;BME280;70568;51.378;-1.342;2023-12-07T12:18:21;99052.87;;;1.68;43.66
63339;BME280;70568;51.378;-1.342;2023-12-07T12:20:50;99053.23;;;1.90;42.91
63339;BME280;70568;51.378;-1.342;2023-12-07T12:23:17;99047.26;;;1.97;42.37
63339;BME280;70568;51.378;-1.342;2023-12-07T12:25:44;99029.78;;;2.51;41.03
63339;BME280;70568;51.378;-1.342;2023-12-07T12:28:15;99032.85;;;2.52;42.54
63339;BME280;70568;51.378;-1.342;2023-12-07T12:30:42;99017.10;;;2.44;43.77
63339;BME280;70568;51.378;-1.342;2023-12-07T12:33:09;99001.24;;;0.22;44.86
63339;BME280;70568;51.378;-1.342;2023-12-07T12:35:36;98991.02;;;1.31;45.43
63339;BME280;70568;51.378;-1.342;2023-12-07T12:38:09;98977.35;;;-0.24;46.53
63339;BME280;70568;51.378;-1.342;2023-12-07T12:40:36;98949.22;;;0.03;45.56
63339;BME280;70568;51.378;-1.342;2023-12-07T12:43:03;98957.05;;;0.95;46.44
63339;BME280;70568;51.378;-1.342;2023-12-07T12:45:29;98951.06;;;0.18;46.65
63339;BME280;70568;51.378;-1.342;2023-12-07T12:47:56;98949.06;;;-0.42;47.64
63339;BME280;70568;51.378;-1.342;2023-12-07T12:50:41;98958.17;;;0.79;47.26
63339;BME280;70568;51.378;-1.342;2023-12-07T12:53:10;98949.01;;;0.97;46.19
63339;BME280;70568;51.378;-1.342;2023-12-07T12:55:38;98945.87;;;1.59;45.03
63339;BME280;70568;51.378;-1.342;2023-12-07T12:58:07;98944.59;;;0.39;44.31